createdAt,value
2019-03-28T00:00:31.819Z,63.17
2019-03-28T00:03:02.069Z,62.40
2019-03-28T00:05:33.095Z,60.40
2019-03-28T00:08:03.404Z,65.63
2019-03-28T00:10:33.427Z,66.97
2019-03-28T00:13:03.080Z,61.37
2019-03-28T00:15:33.236Z,65.67
2019-03-28T00:18:03.107Z,59.63
2019-03-28T00:20:35.424Z,57.80
2019-03-28T00:23:21.016Z,69.30
2019-03-28T00:25:51.948Z,54.13
2019-03-28T00:28:21.681Z,60.87
2019-03-28T00:30:51.476Z,60.97
2019-03-28T00:33:21.207Z,57.00
2019-03-28T00:35:51.427Z,58.00
2019-03-28T00:38:21.345Z,55.50
2019-03-28T00:40:51.676Z,59.77
2019-03-28T00:43:21.440Z,57.23
2019-03-28T00:45:51.273Z,59.07
2019-03-28T00:48:20.987Z,60.57
2019-03-28T00:50:52.213Z,57.43
2019-03-28T00:53:21.899Z,58.03
2019-03-28T00:55:51.869Z,61.53
2019-03-28T00:58:21.549Z,58.13
2019-03-28T01:00:51.387Z,60.47
2019-03-28T01:03:21.077Z,63.60
2019-03-28T01:05:50.820Z,59.80
2019-03-28T01:08:20.570Z,65.10
2019-03-28T01:10:50.520Z,58.80
2019-03-28T01:13:20.755Z,63.17
2019-03-28T01:15:50.544Z,62.97
2019-03-28T01:18:20.342Z,69.47
2019-03-28T01:20:50.130Z,78.57
2019-03-28T01:23:19.822Z,68.47
2019-03-28T01:25:51.130Z,76.67
2019-03-28T01:28:20.870Z,81.57
2019-03-28T01:30:54.366Z,77.43
2019-03-28T01:33:24.982Z,81.83
2019-03-28T01:35:55.084Z,74.23
2019-03-28T01:38:25.012Z,90.17
2019-03-28T01:40:55.362Z,77.67
2019-03-28T01:43:43.977Z,85.10
2019-03-28T01:46:14.084Z,84.67
2019-03-28T01:48:43.791Z,87.50
2019-03-28T01:51:13.825Z,88.67
2019-03-28T01:53:43.579Z,85.43
2019-03-28T01:56:13.304Z,84.03
2019-03-28T01:58:45.383Z,91.03
2019-03-28T02:01:15.441Z,89.77
2019-03-28T02:03:47.979Z,93.60
2019-03-28T02:06:17.788Z,85.47
2019-03-28T02:08:47.527Z,89.53
2019-03-28T02:11:18.985Z,93.77
2019-03-28T02:13:48.714Z,90.57
2019-03-28T02:16:18.650Z,91.13
2019-03-28T02:18:49.003Z,91.13
2019-03-28T02:21:18.764Z,88.23
2019-03-28T02:23:48.569Z,88.57
2019-03-28T02:26:18.217Z,95.03
2019-03-28T02:28:48.037Z,88.53
2019-03-28T02:31:17.722Z,82.37
2019-03-28T02:33:48.917Z,86.37
2019-03-28T02:36:19.775Z,83.13
2019-03-28T02:38:50.870Z,80.83
2019-03-28T02:41:22.098Z,80.83
2019-03-28T02:43:51.997Z,78.37
2019-03-28T02:46:22.595Z,82.87
2019-03-28T02:49:03.627Z,84.43
2019-03-28T02:51:33.335Z,71.63
2019-03-28T02:54:03.494Z,74.20
2019-03-28T02:56:34.860Z,70.27
2019-03-28T02:59:07.243Z,67.47
2019-03-28T03:01:36.934Z,73.17
2019-03-28T03:04:08.543Z,67.33
2019-03-28T03:06:38.422Z,78.07
2019-03-28T03:09:11.943Z,76.80
2019-03-28T03:11:46.520Z,72.67
2019-03-28T03:14:18.259Z,72.63
2019-03-28T03:16:48.892Z,76.83
2019-03-28T03:19:18.989Z,67.67
2019-03-28T03:21:50.452Z,70.57
2019-03-28T03:24:20.118Z,62.80
2019-03-28T03:26:49.879Z,55.43
2019-03-28T03:29:21.427Z,66.10
2019-03-28T03:31:54.333Z,67.63
2019-03-28T03:34:24.103Z,68.07
2019-03-28T03:36:53.830Z,65.80
2019-03-28T03:39:23.548Z,60.30
2019-03-28T03:41:53.995Z,61.27
2019-03-28T03:44:23.747Z,63.07
2019-03-28T03:46:53.785Z,64.70
2019-03-28T03:49:25.230Z,59.93
2019-03-28T03:51:56.236Z,61.07
2019-03-28T03:54:27.106Z,67.90
2019-03-28T03:56:57.769Z,62.23
2019-03-28T03:59:29.588Z,58.70
2019-03-28T04:01:59.241Z,60.43
2019-03-28T04:04:31.331Z,62.13
2019-03-28T04:07:01.943Z,58.83
2019-03-28T04:09:31.826Z,61.37
2019-03-28T04:12:02.673Z,65.53
2019-03-28T04:14:32.304Z,51.73
2019-03-28T04:17:02.118Z,60.50
2019-03-28T04:19:32.434Z,67.90
2019-03-28T04:22:02.246Z,65.47
2019-03-28T04:24:33.749Z,62.10
2019-03-28T04:27:03.516Z,65.87
2019-03-28T04:29:33.400Z,72.47
2019-03-28T04:32:03.980Z,70.90
2019-03-28T04:34:33.720Z,71.43
2019-03-28T04:37:03.422Z,72.13
2019-03-28T04:39:33.153Z,76.63
2019-03-28T04:42:02.951Z,71.10
2019-03-28T04:44:32.715Z,72.80
2019-03-28T04:47:02.661Z,70.63
2019-03-28T04:49:32.642Z,78.37
2019-03-28T04:52:02.397Z,67.90
2019-03-28T04:54:32.223Z,68.47
2019-03-28T04:57:05.396Z,64.97
2019-03-28T04:59:35.265Z,70.80
2019-03-28T05:02:05.371Z,63.37
2019-03-28T05:04:37.673Z,63.67
2019-03-28T05:07:07.783Z,68.30
2019-03-28T05:09:37.448Z,63.87
2019-03-28T05:12:07.180Z,69.17
2019-03-28T05:14:36.885Z,59.07
2019-03-28T05:17:06.676Z,55.30
2019-03-28T05:19:36.422Z,51.10
2019-03-28T05:22:06.466Z,49.60
2019-03-28T05:24:37.388Z,48.07
2019-03-28T05:27:07.387Z,47.33
2019-03-28T05:29:37.208Z,53.73
2019-03-28T05:32:06.880Z,63.50
2019-03-28T05:34:36.612Z,72.90
2019-03-28T05:37:07.865Z,64.43
2019-03-28T05:39:37.603Z,67.50
2019-03-28T05:42:07.293Z,71.83
2019-03-28T05:44:37.011Z,68.07
2019-03-28T05:47:06.772Z,69.40
2019-03-28T05:49:36.378Z,62.47
2019-03-28T05:52:06.384Z,64.07
2019-03-28T05:54:36.069Z,59.60
2019-03-28T05:57:05.811Z,60.20
2019-03-28T05:59:37.693Z,67.27
2019-03-28T06:02:07.459Z,58.77
2019-03-28T06:04:37.438Z,57.07
2019-03-28T06:07:08.772Z,53.13
2019-03-28T06:09:40.217Z,49.13
2019-03-28T06:12:10.312Z,47.67
2019-03-28T06:14:40.140Z,51.10
2019-03-28T06:17:09.904Z,53.10
2019-03-28T06:19:40.544Z,49.53
2019-03-28T06:22:10.262Z,42.47
2019-03-28T06:24:39.958Z,47.07
2019-03-28T06:27:09.704Z,47.60
2019-03-28T06:29:39.395Z,46.40
2019-03-28T06:32:10.872Z,51.80
2019-03-28T06:34:44.130Z,60.87
2019-03-28T06:37:15.652Z,53.23
2019-03-28T06:39:45.416Z,55.40
2019-03-28T06:42:15.131Z,53.83
2019-03-28T06:44:45.870Z,60.40
2019-03-28T06:47:20.814Z,51.97
2019-03-28T06:49:52.355Z,55.47
2019-03-28T06:52:22.103Z,56.33
2019-03-28T06:54:53.961Z,52.23
2019-03-28T06:57:23.657Z,51.00
2019-03-28T06:59:57.169Z,55.93
2019-03-28T07:02:28.681Z,47.83
2019-03-28T07:04:58.689Z,48.83
2019-03-28T07:07:30.967Z,47.03
2019-03-28T07:10:02.642Z,46.07
2019-03-28T07:12:32.607Z,50.93
2019-03-28T07:15:02.284Z,49.70
2019-03-28T07:17:32.062Z,47.97
2019-03-28T07:20:01.803Z,48.53
2019-03-28T07:22:31.427Z,48.93
2019-03-28T07:25:01.262Z,59.07
2019-03-28T07:27:31.010Z,55.53
2019-03-28T07:30:00.812Z,43.40
2019-03-28T07:32:31.970Z,51.87
2019-03-28T07:35:01.656Z,48.97
2019-03-28T07:37:38.790Z,50.40
2019-03-28T07:40:09.048Z,54.03
2019-03-28T07:42:38.878Z,43.77
2019-03-28T07:45:12.423Z,45.67
2019-03-28T07:47:42.569Z,41.67
2019-03-28T07:50:12.796Z,50.60
2019-03-28T07:52:42.565Z,43.13
2019-03-28T07:55:12.498Z,44.33
2019-03-28T07:57:42.259Z,44.70
2019-03-28T08:00:13.266Z,43.67
2019-03-28T08:02:47.955Z,43.20
2019-03-28T08:05:18.208Z,42.07
2019-03-28T08:07:51.547Z,40.03
2019-03-28T08:10:23.299Z,38.93
2019-03-28T08:12:56.036Z,45.73
2019-03-28T08:15:26.213Z,43.37
2019-03-28T08:17:55.977Z,43.83
2019-03-28T08:20:27.563Z,42.10
2019-03-28T08:22:57.508Z,43.90
2019-03-28T08:25:27.807Z,43.90
2019-03-28T08:27:59.022Z,43.60
2019-03-28T08:30:39.664Z,46.93
2019-03-28T08:33:09.646Z,48.53
2019-03-28T08:35:40.197Z,45.00
2019-03-28T08:38:11.413Z,41.73
2019-03-28T08:40:43.028Z,47.37
2019-03-28T08:43:13.120Z,47.37
2019-03-28T08:45:42.921Z,40.47
2019-03-28T08:48:12.704Z,37.13
2019-03-28T08:50:44.553Z,40.07
2019-03-28T08:53:14.609Z,38.80
2019-03-28T08:55:46.237Z,37.33
2019-03-28T08:58:17.075Z,39.67
2019-03-28T09:00:52.427Z,41.63
2019-03-28T09:03:19.938Z,26.23
2019-03-28T09:05:49.803Z,32.90
2019-03-28T09:08:19.584Z,30.40
2019-03-28T09:10:49.413Z,29.27
2019-03-28T09:13:19.158Z,29.10
2019-03-28T09:15:48.965Z,27.17
2019-03-28T09:18:19.801Z,32.93
2019-03-28T09:20:51.378Z,31.40
2019-03-28T09:23:21.111Z,28.97
2019-03-28T09:25:51.372Z,35.17
2019-03-28T09:28:22.915Z,25.50
2019-03-28T09:30:53.568Z,21.00
2019-03-28T09:33:23.612Z,20.53
2019-03-28T09:35:54.384Z,18.87
2019-03-28T09:38:24.116Z,29.93
2019-03-28T09:40:53.865Z,24.80
2019-03-28T09:43:25.695Z,23.17
2019-03-28T09:46:00.207Z,18.10
2019-03-28T09:48:29.782Z,19.50
2019-03-28T09:51:00.385Z,12.70
2019-03-28T09:53:31.492Z,16.60
2019-03-28T09:56:01.520Z,13.47
2019-03-28T09:58:31.186Z,15.20
2019-03-28T10:01:03.004Z,11.80
2019-03-28T10:03:32.378Z,14.13
2019-03-28T10:06:02.163Z,12.20
2019-03-28T10:08:34.414Z,17.37
2019-03-28T10:11:04.564Z,14.47
2019-03-28T10:13:35.444Z,18.07
2019-03-28T10:16:06.668Z,14.87
2019-03-28T10:18:36.444Z,18.57
2019-03-28T10:21:06.488Z,23.87
2019-03-28T10:23:39.712Z,23.53
2019-03-28T10:26:09.945Z,20.83
2019-03-28T10:28:39.714Z,25.73
2019-03-28T10:31:16.490Z,22.60
2019-03-28T10:33:42.049Z,24.70
2019-03-28T10:36:11.717Z,35.23
2019-03-28T10:38:41.705Z,35.67
2019-03-28T10:41:13.733Z,35.53
2019-03-28T10:43:43.484Z,32.43
2019-03-28T10:46:13.159Z,30.63
2019-03-28T10:48:42.761Z,35.90
2019-03-28T10:51:12.539Z,28.83
2019-03-28T10:53:43.841Z,23.63
2019-03-28T10:56:21.919Z,18.53
2019-03-28T10:58:47.880Z,22.20
2019-03-28T11:01:32.514Z,17.80
2019-03-28T11:03:49.490Z,16.77
2019-03-28T11:06:19.513Z,17.30
2019-03-28T11:08:49.190Z,17.40
2019-03-28T11:11:18.839Z,18.97
2019-03-28T11:13:48.618Z,21.10
2019-03-28T11:16:18.450Z,23.00
2019-03-28T11:18:48.202Z,17.63
2019-03-28T11:21:19.120Z,15.27
2019-03-28T11:23:48.827Z,18.77
2019-03-28T11:26:18.610Z,18.50
2019-03-28T11:28:48.297Z,11.90
2019-03-28T11:31:18.217Z,13.17
2019-03-28T11:33:47.928Z,10.50
2019-03-28T11:36:17.960Z,12.27
2019-03-28T11:38:48.018Z,12.70
2019-03-28T11:41:18.515Z,10.80
2019-03-28T11:43:50.119Z,8.33
2019-03-28T11:46:19.853Z,11.57
2019-03-28T11:48:49.620Z,9.50
2019-03-28T11:51:19.245Z,11.40
2019-03-28T11:53:49.691Z,8.47
2019-03-28T11:56:19.611Z,11.53
2019-03-28T11:58:51.599Z,9.50
2019-03-28T12:01:21.364Z,10.90
2019-03-28T12:03:52.029Z,16.73
2019-03-28T12:06:21.761Z,16.47
2019-03-28T12:08:51.498Z,13.97
2019-03-28T12:11:21.300Z,19.77
2019-03-28T12:13:53.388Z,19.23
2019-03-28T12:16:23.138Z,12.83
2019-03-28T12:18:54.946Z,9.37
2019-03-28T12:21:26.232Z,11.07
2019-03-28T12:23:55.893Z,9.10
2019-03-28T12:26:27.621Z,7.57
2019-03-28T12:28:59.651Z,14.40
2019-03-28T12:31:29.424Z,8.23
2019-03-28T12:34:00.220Z,8.20
2019-03-28T12:36:29.950Z,7.00
2019-03-28T12:39:00.720Z,7.50
2019-03-28T12:41:32.852Z,10.77
2019-03-28T12:44:02.606Z,10.00
2019-03-28T12:46:32.333Z,12.10
2019-03-28T12:49:02.185Z,9.83
2019-03-28T12:51:32.020Z,7.83
2019-03-28T12:54:02.601Z,7.60
2019-03-28T12:56:32.546Z,8.27
2019-03-28T12:59:02.441Z,7.07
2019-03-28T13:01:32.238Z,13.50
2019-03-28T13:04:04.813Z,9.43
2019-03-28T13:06:34.875Z,7.80
2019-03-28T13:09:09.759Z,6.70
2019-03-28T13:11:39.651Z,8.50
2019-03-28T13:14:09.683Z,12.17
2019-03-28T13:16:39.376Z,9.07
2019-03-28T13:19:09.071Z,7.77
2019-03-28T13:21:38.774Z,10.27
2019-03-28T13:24:08.543Z,5.37
2019-03-28T13:26:38.316Z,5.17
2019-03-28T13:29:08.081Z,5.23
2019-03-28T13:31:37.901Z,5.60
2019-03-28T13:34:07.665Z,7.40
2019-03-28T13:36:37.297Z,9.93
2019-03-28T13:39:08.013Z,7.20
2019-03-28T13:41:37.703Z,5.83
2019-03-28T13:44:07.320Z,6.63
2019-03-28T13:46:37.415Z,6.73
2019-03-28T13:49:07.090Z,8.27
2019-03-28T13:51:36.729Z,8.83
2019-03-28T13:54:06.538Z,8.00
2019-03-28T13:56:38.565Z,12.23
2019-03-28T13:59:08.270Z,7.00
2019-03-28T14:01:38.192Z,13.90
2019-03-28T14:04:07.927Z,8.57
2019-03-28T14:06:39.388Z,7.83
2019-03-28T14:09:09.112Z,10.23
2019-03-28T14:11:38.778Z,7.93
2019-03-28T14:14:08.766Z,7.73
2019-03-28T14:16:38.416Z,8.07
2019-03-28T14:19:08.419Z,9.30
2019-03-28T14:21:38.063Z,12.20
2019-03-28T14:24:07.703Z,7.77
2019-03-28T14:26:37.639Z,6.87
2019-03-28T14:29:07.440Z,8.13
2019-03-28T14:31:37.209Z,8.73
2019-03-28T14:34:09.373Z,7.10
2019-03-28T14:36:39.006Z,9.87
2019-03-28T14:39:09.358Z,5.67
2019-03-28T14:41:39.133Z,7.20
2019-03-28T14:44:08.793Z,7.27
2019-03-28T14:46:38.443Z,8.13
2019-03-28T14:49:10.715Z,9.70
2019-03-28T14:51:41.670Z,18.13
2019-03-28T14:54:13.525Z,13.10
2019-03-28T14:56:46.096Z,9.40
2019-03-28T14:59:16.579Z,6.73
2019-03-28T15:01:46.212Z,9.53
2019-03-28T15:04:15.878Z,8.40
2019-03-28T15:06:46.890Z,10.13
2019-03-28T15:09:16.630Z,10.07
2019-03-28T15:11:46.300Z,10.07
2019-03-28T15:14:15.932Z,12.40
2019-03-28T15:16:45.728Z,8.93
2019-03-28T15:19:15.388Z,8.80
2019-03-28T15:21:45.099Z,10.37
2019-03-28T15:24:14.796Z,8.30
2019-03-28T15:26:44.715Z,7.60
2019-03-28T15:29:15.788Z,6.97
2019-03-28T15:31:45.531Z,8.27
2019-03-28T15:34:15.355Z,8.53
2019-03-28T15:36:46.450Z,6.67
2019-03-28T15:39:17.622Z,6.73
2019-03-28T15:41:47.325Z,8.00
2019-03-28T15:44:18.357Z,6.97
2019-03-28T15:46:48.056Z,11.07
2019-03-28T15:49:17.711Z,13.33
2019-03-28T15:51:47.363Z,11.67
2019-03-28T15:54:17.013Z,13.30
2019-03-28T15:56:46.987Z,15.23
2019-03-28T15:59:18.855Z,17.03
2019-03-28T16:01:48.657Z,11.10
2019-03-28T16:04:18.409Z,26.27
2019-03-28T16:06:48.113Z,46.80
2019-03-28T16:09:20.570Z,18.57
2019-03-28T16:12:01.996Z,16.10
2019-03-28T16:14:21.657Z,12.10
2019-03-28T16:16:52.988Z,13.77
2019-03-28T16:19:24.989Z,13.77
2019-03-28T16:21:56.116Z,9.97
2019-03-28T16:24:27.437Z,13.77
2019-03-28T16:26:59.947Z,11.60
2019-03-28T16:29:32.179Z,13.57
2019-03-28T16:32:01.956Z,11.27
2019-03-28T16:34:31.598Z,11.53
2019-03-28T16:37:05.192Z,10.73
2019-03-28T16:39:35.110Z,10.43
2019-03-28T16:42:04.924Z,12.57
2019-03-28T16:44:35.902Z,15.77
2019-03-28T16:47:07.918Z,16.80
2019-03-28T16:49:41.252Z,14.80
2019-03-28T16:52:12.350Z,15.93
2019-03-28T16:54:42.342Z,14.47
2019-03-28T16:57:12.536Z,14.67
2019-03-28T16:59:42.210Z,13.47
2019-03-28T17:02:11.906Z,17.43
2019-03-28T17:04:43.827Z,20.47
2019-03-28T17:07:17.866Z,18.80
2019-03-28T17:09:47.709Z,16.03
2019-03-28T17:12:17.709Z,19.70
2019-03-28T17:14:47.370Z,27.67
2019-03-28T17:17:17.256Z,15.37
2019-03-28T17:19:47.280Z,22.50
2019-03-28T17:22:16.985Z,27.47
2019-03-28T17:24:46.652Z,23.00
2019-03-28T17:27:19.671Z,24.43
2019-03-28T17:29:49.481Z,28.37
2019-03-28T17:32:22.599Z,25.97
2019-03-28T17:34:52.375Z,22.63
2019-03-28T17:37:22.063Z,23.93
2019-03-28T17:39:51.868Z,28.93
2019-03-28T17:42:21.601Z,30.27
2019-03-28T17:44:51.285Z,28.70
2019-03-28T17:47:23.299Z,26.00
2019-03-28T17:49:56.026Z,25.80
2019-03-28T17:52:25.798Z,33.93
2019-03-28T17:54:55.578Z,26.77
2019-03-28T17:57:25.238Z,28.00
2019-03-28T17:59:54.988Z,27.70
2019-03-28T18:02:25.985Z,32.43
2019-03-28T18:05:08.442Z,32.97
2019-03-28T18:07:28.097Z,31.00
2019-03-28T18:09:58.107Z,27.20
2019-03-28T18:12:29.385Z,32.60
2019-03-28T18:14:59.080Z,32.73
2019-03-28T18:17:28.789Z,37.10
2019-03-28T18:19:58.722Z,31.93
2019-03-28T18:22:32.111Z,37.20
2019-03-28T18:25:01.786Z,28.77
2019-03-28T18:27:31.549Z,30.33
2019-03-28T18:30:05.041Z,33.70
2019-03-28T18:32:34.483Z,34.27
2019-03-28T18:35:07.702Z,34.27
2019-03-28T18:37:36.847Z,34.60
2019-03-28T18:40:07.049Z,31.80
2019-03-28T18:42:36.700Z,34.40
2019-03-28T18:45:07.808Z,34.73
2019-03-28T18:47:37.900Z,30.50
2019-03-28T18:50:08.231Z,32.30
2019-03-28T18:52:37.970Z,29.90
2019-03-28T18:55:10.429Z,36.33
2019-03-28T18:57:41.416Z,35.00
2019-03-28T19:00:12.072Z,39.00
2019-03-28T19:02:41.903Z,36.20
2019-03-28T19:05:19.690Z,40.60
2019-03-28T19:07:45.774Z,39.23
2019-03-28T19:10:16.031Z,37.87
2019-03-28T19:12:47.810Z,35.57
2019-03-28T19:15:17.871Z,34.27
2019-03-28T19:17:47.567Z,38.43
2019-03-28T19:20:18.590Z,34.13
2019-03-28T19:22:50.247Z,32.97
2019-03-28T19:25:19.562Z,36.20
2019-03-28T19:27:49.292Z,33.13
2019-03-28T19:30:31.859Z,35.93
2019-03-28T19:33:02.104Z,32.30
2019-03-28T19:35:33.534Z,35.47
2019-03-28T19:38:04.481Z,31.27
2019-03-28T19:40:35.037Z,36.37
2019-03-28T19:43:04.773Z,28.90
2019-03-28T19:45:38.863Z,36.17
2019-03-28T19:48:10.403Z,40.60
2019-03-28T19:50:41.821Z,37.37
2019-03-28T19:53:12.154Z,35.90
2019-03-28T19:55:42.007Z,36.93
2019-03-28T19:58:13.605Z,40.03
2019-03-28T20:00:43.988Z,39.47
2019-03-28T20:03:13.958Z,37.83
2019-03-28T20:05:47.902Z,41.77
2019-03-28T20:08:17.994Z,43.23
2019-03-28T20:10:47.298Z,40.00
2019-03-28T20:13:18.532Z,38.40
2019-03-28T20:15:48.222Z,37.13
2019-03-28T20:18:17.888Z,39.87
2019-03-28T20:20:47.460Z,38.87
2019-03-28T20:23:17.154Z,34.70
2019-03-28T20:25:46.834Z,39.13
2019-03-28T20:28:16.644Z,43.73
2019-03-28T20:30:46.390Z,41.17
2019-03-28T20:33:16.370Z,33.63
2019-03-28T20:36:01.909Z,35.97
2019-03-28T20:38:19.079Z,43.87
2019-03-28T20:40:53.241Z,48.10
2019-03-28T20:43:27.405Z,42.27
2019-03-28T20:45:57.145Z,42.40
2019-03-28T20:48:28.280Z,44.90
2019-03-28T20:50:58.078Z,57.53
2019-03-28T20:53:29.060Z,49.03
2019-03-28T20:56:02.031Z,41.13
2019-03-28T20:58:31.699Z,49.17
2019-03-28T21:01:05.082Z,52.20
2019-03-28T21:03:35.541Z,51.93
2019-03-28T21:06:15.220Z,52.40
2019-03-28T21:08:36.708Z,53.17
2019-03-28T21:11:07.411Z,57.97
2019-03-28T21:13:37.120Z,51.03
2019-03-28T21:16:06.744Z,53.87
2019-03-28T21:18:36.409Z,60.07
2019-03-28T21:21:06.090Z,52.23
2019-03-28T21:23:35.739Z,50.93
2019-03-28T21:26:05.722Z,57.43
2019-03-28T21:28:46.950Z,60.30
2019-03-28T21:31:11.484Z,57.70
2019-03-28T21:33:41.110Z,61.80
2019-03-28T21:36:10.799Z,55.93
2019-03-28T21:38:40.500Z,68.30
2019-03-28T21:41:10.832Z,54.10
2019-03-28T21:43:40.517Z,72.30
2019-03-28T21:46:10.656Z,82.90
2019-03-28T21:48:40.673Z,81.80
2019-03-28T21:51:11.705Z,84.50
2019-03-28T21:53:41.641Z,87.53
2019-03-28T21:56:14.124Z,84.23
2019-03-28T21:58:44.804Z,89.50
2019-03-28T22:01:15.605Z,84.23
2019-03-28T22:03:45.616Z,94.93
2019-03-28T22:06:16.245Z,92.10
2019-03-28T22:08:45.941Z,96.30
2019-03-28T22:11:17.972Z,105.70
2019-03-28T22:13:47.898Z,93.93
2019-03-28T22:16:19.975Z,85.97
2019-03-28T22:18:49.619Z,83.03
2019-03-28T22:21:19.329Z,95.60
2019-03-28T22:23:49.023Z,94.10
2019-03-28T22:26:18.726Z,87.37
2019-03-28T22:28:49.915Z,84.50
2019-03-28T22:31:19.572Z,78.90
2019-03-28T22:33:49.528Z,82.07
2019-03-28T22:36:20.419Z,84.77
2019-03-28T22:38:50.636Z,89.23
2019-03-28T22:41:22.825Z,79.50
2019-03-28T22:43:55.904Z,80.90
2019-03-28T22:46:25.950Z,61.03
2019-03-28T22:48:56.461Z,73.93
2019-03-28T22:51:31.572Z,73.80
2019-03-28T22:54:00.263Z,82.03
2019-03-28T22:56:29.990Z,80.03
2019-03-28T22:59:00.976Z,98.93
2019-03-28T23:01:30.813Z,86.37
2019-03-28T23:04:00.658Z,84.17
2019-03-28T23:06:31.804Z,81.57
2019-03-28T23:09:01.488Z,95.07
2019-03-28T23:11:31.150Z,88.20
2019-03-28T23:14:00.877Z,75.90
2019-03-28T23:16:31.539Z,74.73
2019-03-28T23:19:01.425Z,59.27
2019-03-28T23:21:31.492Z,58.90
2019-03-28T23:24:02.005Z,46.10
2019-03-28T23:26:31.615Z,47.83
2019-03-28T23:29:01.353Z,44.90
2019-03-28T23:31:30.991Z,39.00
2019-03-28T23:34:01.554Z,45.87
2019-03-28T23:36:31.346Z,39.27
2019-03-28T23:39:02.085Z,29.00
2019-03-28T23:41:33.793Z,30.27
2019-03-28T23:44:03.427Z,30.50
2019-03-28T23:46:33.981Z,24.37
2019-03-28T23:49:03.792Z,38.53
2019-03-28T23:51:33.674Z,34.20
2019-03-28T23:54:04.540Z,35.53
2019-03-28T23:56:34.272Z,24.50
2019-03-28T23:59:03.980Z,19.93
